createdAt,value
2024-03-08T00:01:46.738Z,0.18
2024-03-08T00:04:26.952Z,0.17
2024-03-08T00:07:07.900Z,0.18
2024-03-08T00:09:47.822Z,0.19
2024-03-08T00:12:28.389Z,0.18
2024-03-08T00:15:08.284Z,0.20
2024-03-08T00:17:49.315Z,0.21
2024-03-08T00:20:29.704Z,0.21
2024-03-08T00:23:09.938Z,0.20
2024-03-08T00:25:49.796Z,0.20
2024-03-08T00:28:29.636Z,0.20
2024-03-08T00:31:09.689Z,0.17
2024-03-08T00:33:49.567Z,0.16
2024-03-08T00:36:31.710Z,0.16
2024-03-08T00:39:13.392Z,0.18
2024-03-08T00:41:53.508Z,0.18
2024-03-08T00:44:33.441Z,0.16
2024-03-08T00:47:13.801Z,0.17
2024-03-08T00:49:54.481Z,0.14
2024-03-08T00:52:36.202Z,0.16
2024-03-08T00:55:16.084Z,0.16
2024-03-08T00:57:56.629Z,0.13
2024-03-08T01:00:36.380Z,0.12
2024-03-08T01:03:16.321Z,0.14
2024-03-08T01:05:56.205Z,0.14
2024-03-08T01:08:36.122Z,0.14
2024-03-08T01:11:16.125Z,0.14
2024-03-08T01:13:55.959Z,0.16
2024-03-08T01:16:35.765Z,0.15
2024-03-08T01:19:16.737Z,0.13
2024-03-08T01:21:58.169Z,0.11
2024-03-08T01:24:38.551Z,0.12
2024-03-08T01:27:18.481Z,0.11
2024-03-08T01:30:00.901Z,0.12
2024-03-08T01:32:40.997Z,0.12
2024-03-08T01:35:23.113Z,0.12
2024-03-08T01:38:02.972Z,0.11
2024-03-08T01:40:43.075Z,0.11
2024-03-08T01:43:35.752Z,0.11
2024-03-08T01:46:17.610Z,0.11
2024-03-08T01:48:57.459Z,0.11
2024-03-08T01:51:37.402Z,0.12
2024-03-08T01:54:17.292Z,0.11
2024-03-08T01:56:57.169Z,0.10
2024-03-08T01:59:37.054Z,0.09
2024-03-08T02:02:16.952Z,0.06
2024-03-08T02:04:56.933Z,0.07
2024-03-08T02:07:37.135Z,0.10
2024-03-08T02:10:17.450Z,0.12
2024-03-08T02:12:57.359Z,0.13
2024-03-08T02:16:09.520Z,0.14
2024-03-08T02:18:49.879Z,0.13
2024-03-08T02:21:29.961Z,0.15
2024-03-08T02:24:10.498Z,0.17
2024-03-08T02:26:50.485Z,0.17
2024-03-08T02:29:30.429Z,0.15
2024-03-08T02:32:10.416Z,0.13
2024-03-08T02:34:50.820Z,0.11
2024-03-08T02:37:30.740Z,0.12
2024-03-08T02:40:10.825Z,0.14
2024-03-08T02:42:50.748Z,0.13
2024-03-08T02:45:31.085Z,0.14
2024-03-08T02:48:12.386Z,0.11
2024-03-08T02:50:52.947Z,0.12
2024-03-08T02:53:36.694Z,0.13
2024-03-08T02:56:18.097Z,0.14
2024-03-08T02:58:58.104Z,0.13
2024-03-08T03:01:39.807Z,0.12
2024-03-08T03:04:19.607Z,0.07
2024-03-08T03:06:59.432Z,0.02
2024-03-08T03:09:39.205Z,-0.00
2024-03-08T03:12:19.596Z,-0.02
2024-03-08T03:14:59.464Z,-0.02
2024-03-08T03:17:39.407Z,-0.04
2024-03-08T03:20:24.237Z,-0.02
2024-03-08T03:23:05.011Z,-0.01
2024-03-08T03:25:45.002Z,-0.03
2024-03-08T03:28:25.359Z,-0.04
2024-03-08T03:31:06.567Z,-0.05
2024-03-08T03:33:48.639Z,-0.09
2024-03-08T03:36:29.277Z,-0.13
2024-03-08T03:39:12.361Z,-0.17
2024-03-08T03:41:53.355Z,-0.15
2024-03-08T03:44:34.053Z,-0.12
2024-03-08T03:47:14.322Z,-0.12
2024-03-08T03:50:42.296Z,-0.13
2024-03-08T03:54:18.846Z,-0.13
2024-03-08T03:57:55.748Z,-0.11
2024-03-08T04:01:33.295Z,-0.09
2024-03-08T04:05:04.962Z,-0.09
2024-03-08T04:08:47.492Z,-0.08
2024-03-08T04:12:24.288Z,-0.07
2024-03-08T04:16:02.461Z,-0.07
2024-03-08T04:19:33.105Z,-0.06
2024-03-08T04:23:15.933Z,-0.05
2024-03-08T04:26:52.644Z,-0.09
2024-03-08T04:30:29.453Z,-0.09
2024-03-08T04:34:06.292Z,-0.10
2024-03-08T04:37:49.101Z,-0.11
2024-03-08T04:41:26.693Z,-0.14
2024-03-08T04:45:03.444Z,-0.14
2024-03-08T04:48:34.204Z,-0.15
2024-03-08T04:52:17.188Z,-0.13
2024-03-08T04:56:00.083Z,-0.10
2024-03-08T04:59:36.711Z,-0.07
2024-03-08T05:03:19.426Z,-0.02
2024-03-08T05:06:56.187Z,0.03
2024-03-08T05:10:27.533Z,0.07
2024-03-08T05:14:03.086Z,0.12
2024-03-08T05:17:45.233Z,0.16
2024-03-08T05:21:21.878Z,0.22
2024-03-08T05:24:58.714Z,0.28
2024-03-08T05:28:29.351Z,0.30
2024-03-08T05:32:06.076Z,0.35
2024-03-08T05:35:41.359Z,0.37
2024-03-08T05:39:21.541Z,0.43
2024-03-08T05:42:52.529Z,0.53
2024-03-08T05:46:29.285Z,0.58
2024-03-08T05:50:05.839Z,0.65
2024-03-08T05:53:42.667Z,0.71
2024-03-08T05:57:07.173Z,0.76
2024-03-08T06:00:31.981Z,0.80
2024-03-08T06:04:00.414Z,0.91
2024-03-08T06:07:42.204Z,1.01
2024-03-08T06:11:22.819Z,1.03
2024-03-08T06:15:03.803Z,1.07
2024-03-08T06:18:44.499Z,1.19
2024-03-08T06:22:25.614Z,1.27
2024-03-08T06:26:08.410Z,1.30
2024-03-08T06:29:51.457Z,1.38
2024-03-08T06:33:31.707Z,1.48
2024-03-08T06:37:08.778Z,1.52
2024-03-08T06:40:45.812Z,1.54
2024-03-08T06:44:22.542Z,1.61
2024-03-08T06:47:59.510Z,1.74
2024-03-08T06:51:42.681Z,1.91
2024-03-08T06:55:25.351Z,2.04
2024-03-08T06:59:08.762Z,2.18
2024-03-08T07:02:52.505Z,2.30
2024-03-08T07:06:35.496Z,2.28
2024-03-08T07:10:17.976Z,2.33
2024-03-08T07:14:01.139Z,2.31
2024-03-08T07:17:43.902Z,2.32
2024-03-08T07:21:26.547Z,2.27
2024-03-08T07:25:09.388Z,2.16
2024-03-08T07:28:52.172Z,2.11
2024-03-08T07:32:35.263Z,2.37
2024-03-08T07:36:18.190Z,2.71
2024-03-08T07:40:00.657Z,3.06
2024-03-08T07:43:43.489Z,3.42
2024-03-08T07:47:25.619Z,3.77
2024-03-08T07:50:03.621Z,3.94
2024-03-08T07:52:38.911Z,4.06
2024-03-08T07:55:13.481Z,4.13
2024-03-08T07:57:44.019Z,4.20
2024-03-08T08:00:19.368Z,4.23
2024-03-08T08:02:50.964Z,4.16
2024-03-08T08:05:21.778Z,4.10
2024-03-08T08:07:54.870Z,4.01
2024-03-08T08:10:30.232Z,3.89
2024-03-08T08:12:58.494Z,3.86
2024-03-08T08:15:31.457Z,3.89
2024-03-08T08:18:07.717Z,3.93
2024-03-08T08:20:42.038Z,4.08
2024-03-08T08:23:13.307Z,4.23
2024-03-08T08:25:41.088Z,4.33
2024-03-08T08:28:11.677Z,4.39
2024-03-08T08:30:39.808Z,4.49
2024-03-08T08:33:11.878Z,4.75
2024-03-08T08:35:48.129Z,4.87
2024-03-08T08:38:22.019Z,5.16
2024-03-08T08:40:49.850Z,5.28
2024-03-08T08:43:19.115Z,5.25
2024-03-08T08:45:48.619Z,5.18
2024-03-08T08:48:22.733Z,5.00
2024-03-08T08:50:51.922Z,4.88
2024-03-08T08:53:19.839Z,4.72
2024-03-08T08:55:47.789Z,4.66
2024-03-08T08:58:15.772Z,4.62
2024-03-08T09:00:45.354Z,4.72
2024-03-08T09:03:14.197Z,4.82
2024-03-08T09:05:48.731Z,4.91
2024-03-08T09:08:16.539Z,5.04
2024-03-08T09:10:52.207Z,5.18
2024-03-08T09:13:31.531Z,5.09
2024-03-08T09:16:07.902Z,5.25
2024-03-08T09:18:36.438Z,5.47
2024-03-08T09:21:04.569Z,5.61
2024-03-08T09:23:32.438Z,5.74
2024-03-08T09:26:00.319Z,5.84
2024-03-08T09:28:29.121Z,6.02
2024-03-08T09:31:00.725Z,6.24
2024-03-08T09:33:36.497Z,6.22
2024-03-08T09:36:05.421Z,6.05
2024-03-08T09:38:33.186Z,5.95
2024-03-08T09:41:06.051Z,5.88
2024-03-08T09:43:40.153Z,5.70
2024-03-08T09:46:08.009Z,5.49
2024-03-08T09:48:36.192Z,5.60
2024-03-08T09:51:05.599Z,5.57
2024-03-08T09:53:33.459Z,5.51
2024-03-08T09:56:05.467Z,5.52
2024-03-08T09:58:49.716Z,5.57
2024-03-08T10:01:23.681Z,5.79
2024-03-08T10:03:51.629Z,5.96
2024-03-08T10:06:25.813Z,6.14
2024-03-08T10:08:53.717Z,6.23
2024-03-08T10:11:28.262Z,6.13
2024-03-08T10:13:56.318Z,6.10
2024-03-08T10:16:30.267Z,6.21
2024-03-08T10:19:06.915Z,6.37
2024-03-08T10:21:57.490Z,6.53
2024-03-08T10:24:25.506Z,6.66
2024-03-08T10:27:06.710Z,6.75
2024-03-08T10:29:44.834Z,6.74
2024-03-08T10:32:18.590Z,6.83
2024-03-08T10:34:46.598Z,6.97
2024-03-08T10:37:24.139Z,7.07
2024-03-08T10:40:17.154Z,7.27
2024-03-08T10:43:00.154Z,7.52
2024-03-08T10:45:38.802Z,7.69
2024-03-08T10:48:37.057Z,7.70
2024-03-08T10:51:08.957Z,7.71
2024-03-08T10:53:43.014Z,7.73
2024-03-08T10:56:17.113Z,7.65
2024-03-08T10:58:50.896Z,7.53
2024-03-08T11:01:18.914Z,7.51
2024-03-08T11:03:55.093Z,7.53
2024-03-08T11:06:42.396Z,7.56
2024-03-08T11:09:28.651Z,7.47
2024-03-08T11:12:31.061Z,7.45
2024-03-08T11:15:13.307Z,7.31
2024-03-08T11:17:50.144Z,7.30
2024-03-08T11:20:24.914Z,7.34
2024-03-08T11:22:57.269Z,7.50
2024-03-08T11:25:54.206Z,7.63
2024-03-08T11:28:24.162Z,7.66
2024-03-08T11:31:01.148Z,7.62
2024-03-08T11:33:36.329Z,7.58
2024-03-08T11:36:18.081Z,7.55
2024-03-08T11:38:46.511Z,7.64
2024-03-08T11:41:21.133Z,7.75
2024-03-08T11:44:06.989Z,7.80
2024-03-08T11:46:35.474Z,7.86
2024-03-08T11:50:16.049Z,7.78
2024-03-08T11:54:05.093Z,7.69
2024-03-08T11:57:53.591Z,7.61
2024-03-08T12:01:42.619Z,7.53
2024-03-08T12:05:31.338Z,7.57
2024-03-08T12:09:19.929Z,7.56
2024-03-08T12:13:08.913Z,7.43
2024-03-08T12:16:57.808Z,7.35
2024-03-08T12:20:46.929Z,7.26
2024-03-08T12:24:35.989Z,7.17
2024-03-08T12:28:24.837Z,7.17
2024-03-08T12:32:13.840Z,7.37
2024-03-08T12:36:02.832Z,7.49
2024-03-08T12:39:51.827Z,7.55
2024-03-08T12:43:40.518Z,7.68
2024-03-08T12:47:29.018Z,7.71
2024-03-08T12:51:17.554Z,7.60
2024-03-08T12:55:06.490Z,7.37
2024-03-08T12:58:55.735Z,7.16
2024-03-08T13:02:44.180Z,7.18
2024-03-08T13:06:32.743Z,7.21
2024-03-08T13:10:21.730Z,7.23
2024-03-08T13:14:10.488Z,7.20
2024-03-08T13:17:59.232Z,7.13
2024-03-08T13:21:48.093Z,7.04
2024-03-08T13:25:36.955Z,7.05
2024-03-08T13:29:26.025Z,7.00
2024-03-08T13:33:14.887Z,6.83
2024-03-08T13:37:03.637Z,6.75
2024-03-08T13:40:53.241Z,6.70
2024-03-08T13:44:42.418Z,6.80
2024-03-08T13:48:31.202Z,6.97
2024-03-08T13:52:14.529Z,7.02
2024-03-08T13:55:57.439Z,7.06
2024-03-08T13:59:39.968Z,7.10
2024-03-08T14:03:22.681Z,7.18
2024-03-08T14:07:05.747Z,7.24
2024-03-08T14:10:48.751Z,7.24
2024-03-08T14:14:31.917Z,7.18
2024-03-08T14:18:14.745Z,7.04
2024-03-08T14:21:57.435Z,6.94
2024-03-08T14:25:40.182Z,6.76
2024-03-08T14:29:22.599Z,6.60
2024-03-08T14:33:05.572Z,6.57
2024-03-08T14:36:48.638Z,6.55
2024-03-08T14:40:31.632Z,6.48
2024-03-08T14:44:14.190Z,6.32
2024-03-08T14:48:00.273Z,6.21
2024-03-08T14:51:43.116Z,6.15
2024-03-08T14:55:26.310Z,6.07
2024-03-08T14:59:09.165Z,6.01
2024-03-08T15:02:51.900Z,5.94
2024-03-08T15:06:34.962Z,5.84
2024-03-08T15:10:18.052Z,5.74
2024-03-08T15:14:01.115Z,5.66
2024-03-08T15:17:44.031Z,5.52
2024-03-08T15:21:27.418Z,5.47
2024-03-08T15:25:10.240Z,5.34
2024-03-08T15:28:53.838Z,5.22
2024-03-08T15:32:36.802Z,5.07
2024-03-08T15:36:19.573Z,4.94
2024-03-08T15:40:02.286Z,4.77
2024-03-08T15:43:45.161Z,4.57
2024-03-08T15:47:28.148Z,4.36
2024-03-08T15:49:57.669Z,4.17
2024-03-08T15:52:31.934Z,4.07
2024-03-08T15:55:06.786Z,3.94
2024-03-08T15:57:40.811Z,3.82
2024-03-08T16:00:19.901Z,3.61
2024-03-08T16:02:53.771Z,3.48
2024-03-08T16:05:28.094Z,3.37
2024-03-08T16:08:02.278Z,3.23
2024-03-08T16:10:38.604Z,3.08
2024-03-08T16:13:07.623Z,2.97
2024-03-08T16:15:41.957Z,2.86
2024-03-08T16:18:16.419Z,2.75
2024-03-08T16:20:48.494Z,2.63
2024-03-08T16:23:25.706Z,2.52
2024-03-08T16:25:59.959Z,2.40
2024-03-08T16:28:40.554Z,2.33
2024-03-08T16:31:16.270Z,2.20
2024-03-08T16:33:46.001Z,2.09
2024-03-08T16:36:20.223Z,1.98
2024-03-08T16:38:54.036Z,1.84
2024-03-08T16:41:22.927Z,1.77
2024-03-08T16:44:00.313Z,1.67
2024-03-08T16:46:38.273Z,1.50
2024-03-08T16:49:14.155Z,1.38
2024-03-08T16:51:42.247Z,1.23
2024-03-08T16:54:16.907Z,1.14
2024-03-08T16:56:50.807Z,1.01
2024-03-08T16:59:24.795Z,0.92
2024-03-08T17:01:52.956Z,0.80
2024-03-08T17:04:27.686Z,0.66
2024-03-08T17:07:01.616Z,0.54
2024-03-08T17:09:36.405Z,0.47
2024-03-08T17:12:05.852Z,0.35
2024-03-08T17:14:41.007Z,0.31
2024-03-08T17:17:15.693Z,0.27
2024-03-08T17:19:51.534Z,0.22
2024-03-08T17:22:19.486Z,0.17
2024-03-08T17:24:56.331Z,0.12
2024-03-08T17:27:30.250Z,0.08
2024-03-08T17:30:16.941Z,0.04
2024-03-08T17:32:45.175Z,-0.03
2024-03-08T17:35:24.459Z,-0.08
2024-03-08T17:37:58.815Z,-0.18
2024-03-08T17:40:32.702Z,-0.29
2024-03-08T17:43:07.814Z,-0.32
2024-03-08T17:45:43.852Z,-0.37
2024-03-08T17:48:18.831Z,-0.48
2024-03-08T17:50:55.680Z,-0.54
2024-03-08T17:53:23.941Z,-0.59
2024-03-08T17:55:59.008Z,-0.64
2024-03-08T17:58:36.705Z,-0.77
2024-03-08T18:01:04.903Z,-0.81
2024-03-08T18:03:38.488Z,-0.88
2024-03-08T18:06:12.401Z,-0.94
2024-03-08T18:08:47.300Z,-1.01
2024-03-08T18:11:16.667Z,-1.06
2024-03-08T18:13:52.834Z,-1.10
2024-03-08T18:16:26.719Z,-1.15
2024-03-08T18:19:08.487Z,-1.19
2024-03-08T18:21:37.551Z,-1.25
2024-03-08T18:24:11.528Z,-1.27
2024-03-08T18:26:46.287Z,-1.32
2024-03-08T18:29:20.133Z,-1.34
2024-03-08T18:31:49.182Z,-1.40
2024-03-08T18:34:23.004Z,-1.45
2024-03-08T18:36:57.602Z,-1.49
2024-03-08T18:39:31.742Z,-1.53
2024-03-08T18:42:07.736Z,-1.57
2024-03-08T18:44:43.228Z,-1.61
2024-03-08T18:47:19.282Z,-1.67
2024-03-08T18:49:48.958Z,-1.68
2024-03-08T18:52:24.415Z,-1.77
2024-03-08T18:55:00.153Z,-1.82
2024-03-08T18:57:34.910Z,-1.83
2024-03-08T19:00:13.753Z,-1.82
2024-03-08T19:02:51.772Z,-1.81
2024-03-08T19:05:27.355Z,-1.83
2024-03-08T19:08:07.984Z,-1.88
2024-03-08T19:10:36.784Z,-1.93
2024-03-08T19:13:13.753Z,-1.96
2024-03-08T19:15:52.412Z,-1.99
2024-03-08T19:18:28.666Z,-2.03
2024-03-08T19:20:59.413Z,-2.12
2024-03-08T19:23:36.033Z,-2.18
2024-03-08T19:26:04.179Z,-2.25
2024-03-08T19:28:38.143Z,-2.28
2024-03-08T19:31:08.409Z,-2.32
2024-03-08T19:33:42.315Z,-2.34
2024-03-08T19:36:19.602Z,-2.38
2024-03-08T19:38:55.853Z,-2.46
2024-03-08T19:41:24.511Z,-2.51
2024-03-08T19:43:59.613Z,-2.53
2024-03-08T19:46:42.097Z,-2.62
2024-03-08T19:50:26.473Z,-2.64
2024-03-08T19:54:10.949Z,-2.64
2024-03-08T19:57:57.933Z,-2.61
2024-03-08T20:01:42.695Z,-2.64
2024-03-08T20:05:25.506Z,-2.76
2024-03-08T20:09:08.195Z,-2.85
2024-03-08T20:12:51.054Z,-2.92
2024-03-08T20:16:34.013Z,-2.99
2024-03-08T20:20:16.880Z,-3.06
2024-03-08T20:23:59.846Z,-3.10
2024-03-08T20:27:42.888Z,-3.14
2024-03-08T20:31:25.466Z,-3.21
2024-03-08T20:35:09.071Z,-3.25
2024-03-08T20:38:55.201Z,-3.28
2024-03-08T20:42:38.212Z,-3.29
2024-03-08T20:46:21.070Z,-3.33
2024-03-08T20:50:03.799Z,-3.37
2024-03-08T20:53:46.801Z,-3.41
2024-03-08T20:57:29.627Z,-3.47
2024-03-08T21:01:12.333Z,-3.48
2024-03-08T21:04:55.094Z,-3.53
2024-03-08T21:08:37.680Z,-3.59
2024-03-08T21:12:20.559Z,-3.64
2024-03-08T21:16:03.433Z,-3.63
2024-03-08T21:19:46.393Z,-3.67
2024-03-08T21:23:29.215Z,-3.73
2024-03-08T21:27:12.277Z,-3.77
2024-03-08T21:30:54.990Z,-3.76
2024-03-08T21:34:37.426Z,-3.78
2024-03-08T21:38:20.454Z,-3.80
2024-03-08T21:42:03.529Z,-3.83
2024-03-08T21:45:46.676Z,-3.84
2024-03-08T21:49:29.329Z,-3.88
2024-03-08T21:53:20.188Z,-3.92
2024-03-08T21:57:09.248Z,-3.94
2024-03-08T22:00:51.848Z,-3.93
2024-03-08T22:04:35.738Z,-3.90
2024-03-08T22:08:19.299Z,-3.93
2024-03-08T22:12:01.976Z,-3.96
2024-03-08T22:15:44.997Z,-3.97
2024-03-08T22:19:27.888Z,-3.95
2024-03-08T22:23:10.754Z,-3.95
2024-03-08T22:26:53.306Z,-3.99
2024-03-08T22:30:34.681Z,-4.02
2024-03-08T22:34:15.683Z,-4.02
2024-03-08T22:37:56.836Z,-4.03
2024-03-08T22:41:38.560Z,-4.02
2024-03-08T22:45:19.791Z,-4.03
2024-03-08T22:49:00.826Z,-4.02
2024-03-08T22:52:41.857Z,-4.04
2024-03-08T22:56:22.799Z,-4.10
2024-03-08T23:00:03.873Z,-4.14
2024-03-08T23:03:44.750Z,-4.18
2024-03-08T23:07:25.900Z,-4.15
2024-03-08T23:11:07.133Z,-4.17
2024-03-08T23:14:49.057Z,-4.14
2024-03-08T23:18:29.681Z,-4.11
2024-03-08T23:22:10.802Z,-4.17
2024-03-08T23:25:52.754Z,-4.21
2024-03-08T23:29:33.855Z,-4.20
2024-03-08T23:33:14.963Z,-4.19
2024-03-08T23:36:56.130Z,-4.21
2024-03-08T23:40:37.525Z,-4.24
2024-03-08T23:44:19.095Z,-4.26
2024-03-08T23:47:59.897Z,-4.24
2024-03-08T23:51:39.217Z,-4.25
2024-03-08T23:55:22.262Z,-4.22
2024-03-08T23:59:04.997Z,-4.23
